sensor_id;sensor_type;location;lat;lon;timestamp;temperature;humidity
47757;SHT35;22147;52.388;13.390;2023-06-22T00:01:41;18.82;84.36
47757;SHT35;22147;52.388;13.390;2023-06-22T00:04:10;18.79;84.46
47757;SHT35;22147;52.388;13.390;2023-06-22T00:06:38;18.75;84.50
47757;SHT35;22147;52.388;13.390;2023-06-22T00:09:06;18.72;84.56
47757;SHT35;22147;52.388;13.390;2023-06-22T00:11:34;18.68;84.56
47757;SHT35;22147;52.388;13.390;2023-06-22T00:14:04;18.68;84.62
47757;SHT35;22147;52.388;13.390;2023-06-22T00:16:34;18.63;84.77
47757;SHT35;22147;52.388;13.390;2023-06-22T00:19:03;18.61;84.86
47757;SHT35;22147;52.388;13.390;2023-06-22T00:21:31;18.56;84.92
47757;SHT35;22147;52.388;13.390;2023-06-22T00:24:00;18.55;85.01
47757;SHT35;22147;52.388;13.390;2023-06-22T00:26:29;18.55;85.13
47757;SHT35;22147;52.388;13.390;2023-06-22T00:29:00;18.52;85.17
47757;SHT35;22147;52.388;13.390;2023-06-22T00:31:30;18.51;85.21
47757;SHT35;22147;52.388;13.390;2023-06-22T00:34:01;18.51;85.25
47757;SHT35;22147;52.388;13.390;2023-06-22T00:36:31;18.51;85.18
47757;SHT35;22147;52.388;13.390;2023-06-22T00:39:02;18.51;85.25
47757;SHT35;22147;52.388;13.390;2023-06-22T00:41:32;18.51;85.23
47757;SHT35;22147;52.388;13.390;2023-06-22T00:44:02;18.53;85.26
47757;SHT35;22147;52.388;13.390;2023-06-22T00:46:34;18.49;85.22
47757;SHT35;22147;52.388;13.390;2023-06-22T00:49:04;18.55;85.17
47757;SHT35;22147;52.388;13.390;2023-06-22T00:51:37;18.52;85.06
47757;SHT35;22147;52.388;13.390;2023-06-22T00:54:08;18.55;85.02
47757;SHT35;22147;52.388;13.390;2023-06-22T00:56:42;18.57;84.96
47757;SHT35;22147;52.388;13.390;2023-06-22T00:59:13;18.57;84.87
47757;SHT35;22147;52.388;13.390;2023-06-22T01:01:47;18.66;84.79
47757;SHT35;22147;52.388;13.390;2023-06-22T01:04:18;18.71;84.66
47757;SHT35;22147;52.388;13.390;2023-06-22T01:13:35;18.83;84.24
47757;SHT35;22147;52.388;13.390;2023-06-22T01:16:27;18.83;84.15
47757;SHT35;22147;52.388;13.390;2023-06-22T01:19:25;18.84;84.09
47757;SHT35;22147;52.388;13.390;2023-06-22T01:22:02;18.87;84.04
47757;SHT35;22147;52.388;13.390;2023-06-22T01:25:11;18.86;84.04
47757;SHT35;22147;52.388;13.390;2023-06-22T01:28:47;18.96;83.90
47757;SHT35;22147;52.388;13.390;2023-06-22T01:31:26;18.99;83.71
47757;SHT35;22147;52.388;13.390;2023-06-22T01:34:05;19.02;83.50
47757;SHT35;22147;52.388;13.390;2023-06-22T01:36:36;19.03;83.43
47757;SHT35;22147;52.388;13.390;2023-06-22T01:39:07;19.04;83.43
47757;SHT35;22147;52.388;13.390;2023-06-22T01:41:41;19.06;83.41
47757;SHT35;22147;52.388;13.390;2023-06-22T01:44:12;19.07;83.50
47757;SHT35;22147;52.388;13.390;2023-06-22T01:46:43;19.08;83.58
47757;SHT35;22147;52.388;13.390;2023-06-22T01:49:13;19.10;83.62
47757;SHT35;22147;52.388;13.390;2023-06-22T01:51:43;19.11;83.56
47757;SHT35;22147;52.388;13.390;2023-06-22T01:54:13;19.14;83.54
47757;SHT35;22147;52.388;13.390;2023-06-22T01:56:43;19.15;83.50
47757;SHT35;22147;52.388;13.390;2023-06-22T01:59:34;19.15;83.45
47757;SHT35;22147;52.388;13.390;2023-06-22T02:02:10;19.17;83.43
47757;SHT35;22147;52.388;13.390;2023-06-22T02:04:52;19.28;83.19
47757;SHT35;22147;52.388;13.390;2023-06-22T02:07:32;19.30;83.28
47757;SHT35;22147;52.388;13.390;2023-06-22T02:10:09;19.35;83.19
47757;SHT35;22147;52.388;13.390;2023-06-22T02:12:45;19.35;83.11
47757;SHT35;22147;52.388;13.390;2023-06-22T02:15:14;19.35;83.13
47757;SHT35;22147;52.388;13.390;2023-06-22T02:17:45;19.32;83.11
47757;SHT35;22147;52.388;13.390;2023-06-22T02:20:15;19.31;83.04
47757;SHT35;22147;52.388;13.390;2023-06-22T02:22:45;19.28;83.11
47757;SHT35;22147;52.388;13.390;2023-06-22T02:25:16;19.25;83.23
47757;SHT35;22147;52.388;13.390;2023-06-22T02:27:46;19.24;83.41
47757;SHT35;22147;52.388;13.390;2023-06-22T02:30:16;19.25;83.39
47757;SHT35;22147;52.388;13.390;2023-06-22T02:32:45;19.24;83.42
47757;SHT35;22147;52.388;13.390;2023-06-22T02:35:16;19.25;83.43
47757;SHT35;22147;52.388;13.390;2023-06-22T02:37:45;19.23;83.49
47757;SHT35;22147;52.388;13.390;2023-06-22T02:40:17;19.25;83.85
47757;SHT35;22147;52.388;13.390;2023-06-22T02:42:46;19.28;83.83
47757;SHT35;22147;52.388;13.390;2023-06-22T02:45:16;19.31;83.83
47757;SHT35;22147;52.388;13.390;2023-06-22T02:47:46;19.32;83.79
47757;SHT35;22147;52.388;13.390;2023-06-22T02:50:18;19.35;83.82
47757;SHT35;22147;52.388;13.390;2023-06-22T02:52:48;19.41;83.68
47757;SHT35;22147;52.388;13.390;2023-06-22T02:55:17;19.42;83.66
47757;SHT35;22147;52.388;13.390;2023-06-22T02:57:48;19.42;83.54
47757;SHT35;22147;52.388;13.390;2023-06-22T03:00:20;19.45;83.39
47757;SHT35;22147;52.388;13.390;2023-06-22T03:02:51;19.50;83.42
47757;SHT35;22147;52.388;13.390;2023-06-22T03:05:21;19.48;83.33
47757;SHT35;22147;52.388;13.390;2023-06-22T03:07:51;19.51;83.21
47757;SHT35;22147;52.388;13.390;2023-06-22T03:10:21;19.50;83.18
47757;SHT35;22147;52.388;13.390;2023-06-22T03:12:51;19.47;83.33
47757;SHT35;22147;52.388;13.390;2023-06-22T03:15:21;19.47;83.32
47757;SHT35;22147;52.388;13.390;2023-06-22T03:17:52;19.44;83.45
47757;SHT35;22147;52.388;13.390;2023-06-22T03:20:22;19.42;83.49
47757;SHT35;22147;52.388;13.390;2023-06-22T03:22:53;19.45;83.48
47757;SHT35;22147;52.388;13.390;2023-06-22T03:25:23;19.41;83.67
47757;SHT35;22147;52.388;13.390;2023-06-22T03:27:53;19.40;83.84
47757;SHT35;22147;52.388;13.390;2023-06-22T03:30:23;19.42;83.76
47757;SHT35;22147;52.388;13.390;2023-06-22T03:32:53;19.41;83.77
47757;SHT35;22147;52.388;13.390;2023-06-22T03:35:23;19.35;83.94
47757;SHT35;22147;52.388;13.390;2023-06-22T03:37:53;19.38;83.97
47757;SHT35;22147;52.388;13.390;2023-06-22T03:40:23;19.41;83.98
47757;SHT35;22147;52.388;13.390;2023-06-22T03:42:53;19.38;84.04
47757;SHT35;22147;52.388;13.390;2023-06-22T03:45:23;19.40;83.96
47757;SHT35;22147;52.388;13.390;2023-06-22T03:47:53;19.41;84.08
47757;SHT35;22147;52.388;13.390;2023-06-22T03:50:23;19.41;84.10
47757;SHT35;22147;52.388;13.390;2023-06-22T03:52:53;19.44;84.16
47757;SHT35;22147;52.388;13.390;2023-06-22T03:55:23;19.48;84.05
47757;SHT35;22147;52.388;13.390;2023-06-22T03:57:53;19.47;84.04
47757;SHT35;22147;52.388;13.390;2023-06-22T04:00:24;19.58;84.03
47757;SHT35;22147;52.388;13.390;2023-06-22T04:02:54;19.58;83.61
47757;SHT35;22147;52.388;13.390;2023-06-22T04:05:24;19.54;83.77
47757;SHT35;22147;52.388;13.390;2023-06-22T04:07:54;19.59;83.85
47757;SHT35;22147;52.388;13.390;2023-06-22T04:10:24;19.62;83.76
47757;SHT35;22147;52.388;13.390;2023-06-22T04:12:54;19.63;83.62
47757;SHT35;22147;52.388;13.390;2023-06-22T04:15:24;19.68;83.62
47757;SHT35;22147;52.388;13.390;2023-06-22T04:17:56;19.76;83.57
47757;SHT35;22147;52.388;13.390;2023-06-22T04:20:25;19.82;83.31
47757;SHT35;22147;52.388;13.390;2023-06-22T04:22:58;19.87;83.07
47757;SHT35;22147;52.388;13.390;2023-06-22T04:25:28;19.90;83.00
47757;SHT35;22147;52.388;13.390;2023-06-22T04:27:58;19.94;82.65
47757;SHT35;22147;52.388;13.390;2023-06-22T04:30:29;19.99;82.59
47757;SHT35;22147;52.388;13.390;2023-06-22T04:33:01;20.03;82.50
47757;SHT35;22147;52.388;13.390;2023-06-22T04:35:31;20.08;82.26
47757;SHT35;22147;52.388;13.390;2023-06-22T04:38:01;20.14;82.04
47757;SHT35;22147;52.388;13.390;2023-06-22T04:40:34;20.26;81.89
47757;SHT35;22147;52.388;13.390;2023-06-22T04:43:04;20.30;81.76
47757;SHT35;22147;52.388;13.390;2023-06-22T04:45:36;20.41;81.03
47757;SHT35;22147;52.388;13.390;2023-06-22T04:48:08;20.61;80.28
47757;SHT35;22147;52.388;13.390;2023-06-22T04:50:40;20.52;80.03
47757;SHT35;22147;52.388;13.390;2023-06-22T04:53:10;20.64;80.06
47757;SHT35;22147;52.388;13.390;2023-06-22T04:55:42;20.69;79.70
47757;SHT35;22147;52.388;13.390;2023-06-22T04:58:16;20.74;79.22
47757;SHT35;22147;52.388;13.390;2023-06-22T05:00:45;20.84;79.10
47757;SHT35;22147;52.388;13.390;2023-06-22T05:03:18;20.87;78.20
47757;SHT35;22147;52.388;13.390;2023-06-22T05:05:49;20.87;78.27
47757;SHT35;22147;52.388;13.390;2023-06-22T05:08:20;20.85;78.00
47757;SHT35;22147;52.388;13.390;2023-06-22T05:10:49;20.82;77.47
47757;SHT35;22147;52.388;13.390;2023-06-22T05:13:34;20.84;77.52
47757;SHT35;22147;52.388;13.390;2023-06-22T05:16:04;20.87;77.10
47757;SHT35;22147;52.388;13.390;2023-06-22T05:18:36;20.91;77.15
47757;SHT35;22147;52.388;13.390;2023-06-22T05:21:06;21.06;76.85
47757;SHT35;22147;52.388;13.390;2023-06-22T05:23:37;21.37;76.79
47757;SHT35;22147;52.388;13.390;2023-06-22T05:26:07;21.63;76.10
47757;SHT35;22147;52.388;13.390;2023-06-22T05:28:39;21.78;75.42
47757;SHT35;22147;52.388;13.390;2023-06-22T05:31:09;21.84;74.28
47757;SHT35;22147;52.388;13.390;2023-06-22T05:33:41;21.74;73.63
47757;SHT35;22147;52.388;13.390;2023-06-22T05:36:10;21.84;74.43
47757;SHT35;22147;52.388;13.390;2023-06-22T05:38:41;21.88;73.12
47757;SHT35;22147;52.388;13.390;2023-06-22T05:41:11;21.78;72.04
47757;SHT35;22147;52.388;13.390;2023-06-22T05:43:41;21.71;72.90
47757;SHT35;22147;52.388;13.390;2023-06-22T05:46:11;21.70;73.57
47757;SHT35;22147;52.388;13.390;2023-06-22T05:48:42;21.90;74.14
47757;SHT35;22147;52.388;13.390;2023-06-22T05:51:12;21.92;72.46
47757;SHT35;22147;52.388;13.390;2023-06-22T05:53:42;21.84;72.59
47757;SHT35;22147;52.388;13.390;2023-06-22T05:56:13;21.90;72.48
47757;SHT35;22147;52.388;13.390;2023-06-22T05:58:43;21.88;72.81
47757;SHT35;22147;52.388;13.390;2023-06-22T06:01:10;22.00;72.95
47757;SHT35;22147;52.388;13.390;2023-06-22T06:03:39;22.12;72.82
47757;SHT35;22147;52.388;13.390;2023-06-22T06:06:11;22.21;73.14
47757;SHT35;22147;52.388;13.390;2023-06-22T06:08:39;22.43;72.83
47757;SHT35;22147;52.388;13.390;2023-06-22T06:11:09;22.77;70.65
47757;SHT35;22147;52.388;13.390;2023-06-22T06:13:38;23.08;69.32
47757;SHT35;22147;52.388;13.390;2023-06-22T06:16:08;23.18;68.96
47757;SHT35;22147;52.388;13.390;2023-06-22T06:18:36;23.11;67.31
47757;SHT35;22147;52.388;13.390;2023-06-22T06:21:05;23.42;67.19
47757;SHT35;22147;52.388;13.390;2023-06-22T06:23:33;23.68;66.54
47757;SHT35;22147;52.388;13.390;2023-06-22T06:26:03;23.72;65.11
47757;SHT35;22147;52.388;13.390;2023-06-22T06:28:35;23.66;64.24
47757;SHT35;22147;52.388;13.390;2023-06-22T06:31:05;23.64;65.33
47757;SHT35;22147;52.388;13.390;2023-06-22T06:33:37;23.71;65.20
47757;SHT35;22147;52.388;13.390;2023-06-22T06:36:07;24.03;65.46
47757;SHT35;22147;52.388;13.390;2023-06-22T06:38:36;24.16;64.59
47757;SHT35;22147;52.388;13.390;2023-06-22T06:41:04;24.14;65.06
47757;SHT35;22147;52.388;13.390;2023-06-22T06:43:34;24.00;63.73
47757;SHT35;22147;52.388;13.390;2023-06-22T06:46:04;23.99;64.70
47757;SHT35;22147;52.388;13.390;2023-06-22T06:48:34;24.43;64.95
47757;SHT35;22147;52.388;13.390;2023-06-22T06:51:05;24.98;63.11
47757;SHT35;22147;52.388;13.390;2023-06-22T06:53:38;25.22;60.81
47757;SHT35;22147;52.388;13.390;2023-06-22T06:56:07;25.67;61.00
47757;SHT35;22147;52.388;13.390;2023-06-22T06:58:42;25.93;57.29
47757;SHT35;22147;52.388;13.390;2023-06-22T07:01:12;26.20;57.25
47757;SHT35;22147;52.388;13.390;2023-06-22T07:03:42;26.05;55.28
47757;SHT35;22147;52.388;13.390;2023-06-22T07:06:13;26.07;56.36
47757;SHT35;22147;52.388;13.390;2023-06-22T07:08:42;26.07;56.56
47757;SHT35;22147;52.388;13.390;2023-06-22T07:11:12;26.48;57.24
47757;SHT35;22147;52.388;13.390;2023-06-22T07:13:43;26.61;56.63
47757;SHT35;22147;52.388;13.390;2023-06-22T07:16:13;26.42;54.54
47757;SHT35;22147;52.388;13.390;2023-06-22T07:18:42;26.34;55.20
47757;SHT35;22147;52.388;13.390;2023-06-22T07:21:09;26.72;54.44
47757;SHT35;22147;52.388;13.390;2023-06-22T07:23:37;26.45;54.91
47757;SHT35;22147;52.388;13.390;2023-06-22T07:26:09;26.32;54.07
47757;SHT35;22147;52.388;13.390;2023-06-22T07:28:38;26.82;53.94
47757;SHT35;22147;52.388;13.390;2023-06-22T07:31:10;26.63;54.77
47757;SHT35;22147;52.388;13.390;2023-06-22T07:33:38;26.46;54.56
47757;SHT35;22147;52.388;13.390;2023-06-22T07:36:07;26.07;56.67
47757;SHT35;22147;52.388;13.390;2023-06-22T07:38:35;26.02;56.50
47757;SHT35;22147;52.388;13.390;2023-06-22T07:41:04;25.87;54.41
47757;SHT35;22147;52.388;13.390;2023-06-22T07:43:35;25.86;53.90
47757;SHT35;22147;52.388;13.390;2023-06-22T07:46:04;25.71;53.90
47757;SHT35;22147;52.388;13.390;2023-06-22T07:48:32;25.69;54.22
47757;SHT35;22147;52.388;13.390;2023-06-22T07:51:01;25.66;55.07
47757;SHT35;22147;52.388;13.390;2023-06-22T07:53:29;25.62;54.70
47757;SHT35;22147;52.388;13.390;2023-06-22T07:55:58;25.83;54.02
47757;SHT35;22147;52.388;13.390;2023-06-22T07:58:26;25.62;52.05
47757;SHT35;22147;52.388;13.390;2023-06-22T08:00:54;25.19;53.00
47757;SHT35;22147;52.388;13.390;2023-06-22T08:03:23;25.28;53.09
47757;SHT35;22147;52.388;13.390;2023-06-22T08:05:51;25.28;53.40
47757;SHT35;22147;52.388;13.390;2023-06-22T08:08:19;25.39;53.36
47757;SHT35;22147;52.388;13.390;2023-06-22T08:10:49;25.65;53.76
47757;SHT35;22147;52.388;13.390;2023-06-22T08:13:19;25.84;53.82
47757;SHT35;22147;52.388;13.390;2023-06-22T08:15:49;25.87;52.22
47757;SHT35;22147;52.388;13.390;2023-06-22T08:18:20;26.04;51.87
47757;SHT35;22147;52.388;13.390;2023-06-22T08:20:48;25.90;51.10
47757;SHT35;22147;52.388;13.390;2023-06-22T08:23:17;25.98;51.35
47757;SHT35;22147;52.388;13.390;2023-06-22T08:25:45;25.93;50.93
47757;SHT35;22147;52.388;13.390;2023-06-22T08:28:13;25.86;51.36
47757;SHT35;22147;52.388;13.390;2023-06-22T08:30:43;25.86;49.93
47757;SHT35;22147;52.388;13.390;2023-06-22T08:33:11;25.87;51.70
47757;SHT35;22147;52.388;13.390;2023-06-22T08:35:55;25.95;49.20
47757;SHT35;22147;52.388;13.390;2023-06-22T08:38:24;25.91;49.96
47757;SHT35;22147;52.388;13.390;2023-06-22T08:40:52;25.98;49.86
47757;SHT35;22147;52.388;13.390;2023-06-22T08:43:21;26.13;49.52
47757;SHT35;22147;52.388;13.390;2023-06-22T08:45:50;26.28;51.33
47757;SHT35;22147;52.388;13.390;2023-06-22T08:48:18;26.20;50.02
47757;SHT35;22147;52.388;13.390;2023-06-22T08:50:48;26.18;49.62
47757;SHT35;22147;52.388;13.390;2023-06-22T08:53:17;26.28;49.99
47757;SHT35;22147;52.388;13.390;2023-06-22T08:55:46;26.46;49.90
47757;SHT35;22147;52.388;13.390;2023-06-22T08:58:16;26.76;49.91
47757;SHT35;22147;52.388;13.390;2023-06-22T09:00:48;27.19;49.47
47757;SHT35;22147;52.388;13.390;2023-06-22T09:03:16;27.30;47.14
47757;SHT35;22147;52.388;13.390;2023-06-22T09:05:45;27.03;48.41
47757;SHT35;22147;52.388;13.390;2023-06-22T09:08:13;26.97;47.72
47757;SHT35;22147;52.388;13.390;2023-06-22T09:10:42;27.16;49.40
47757;SHT35;22147;52.388;13.390;2023-06-22T09:13:10;27.21;48.13
47757;SHT35;22147;52.388;13.390;2023-06-22T09:15:39;27.06;48.13
47757;SHT35;22147;52.388;13.390;2023-06-22T09:18:11;26.69;47.91
47757;SHT35;22147;52.388;13.390;2023-06-22T09:20:42;26.58;49.36
47757;SHT35;22147;52.388;13.390;2023-06-22T09:23:12;26.78;49.19
47757;SHT35;22147;52.388;13.390;2023-06-22T09:25:42;27.09;48.72
47757;SHT35;22147;52.388;13.390;2023-06-22T09:28:14;27.17;46.88
47757;SHT35;22147;52.388;13.390;2023-06-22T09:30:44;27.26;48.52
47757;SHT35;22147;52.388;13.390;2023-06-22T09:33:16;27.35;46.98
47757;SHT35;22147;52.388;13.390;2023-06-22T09:35:46;27.41;46.41
47757;SHT35;22147;52.388;13.390;2023-06-22T09:38:17;27.27;46.59
47757;SHT35;22147;52.388;13.390;2023-06-22T09:40:47;26.90;46.30
47757;SHT35;22147;52.388;13.390;2023-06-22T09:43:17;26.59;47.26
47757;SHT35;22147;52.388;13.390;2023-06-22T09:45:47;26.78;47.11
47757;SHT35;22147;52.388;13.390;2023-06-22T09:48:17;26.63;47.04
47757;SHT35;22147;52.388;13.390;2023-06-22T09:50:46;26.79;48.27
47757;SHT35;22147;52.388;13.390;2023-06-22T09:53:17;26.86;46.59
47757;SHT35;22147;52.388;13.390;2023-06-22T09:55:47;26.89;47.30
47757;SHT35;22147;52.388;13.390;2023-06-22T09:58:17;26.96;47.24
47757;SHT35;22147;52.388;13.390;2023-06-22T10:00:48;27.01;48.66
47757;SHT35;22147;52.388;13.390;2023-06-22T10:03:18;26.86;46.40
47757;SHT35;22147;52.388;13.390;2023-06-22T10:05:48;27.09;46.43
47757;SHT35;22147;52.388;13.390;2023-06-22T10:08:18;27.27;46.49
47757;SHT35;22147;52.388;13.390;2023-06-22T10:10:48;27.24;45.81
47757;SHT35;22147;52.388;13.390;2023-06-22T10:13:21;27.09;47.13
47757;SHT35;22147;52.388;13.390;2023-06-22T10:15:52;27.07;47.58
47757;SHT35;22147;52.388;13.390;2023-06-22T10:18:23;27.00;46.98
47757;SHT35;22147;52.388;13.390;2023-06-22T10:20:53;26.86;46.30
47757;SHT35;22147;52.388;13.390;2023-06-22T10:23:23;26.59;48.08
47757;SHT35;22147;52.388;13.390;2023-06-22T10:26:24;26.93;46.81
47757;SHT35;22147;52.388;13.390;2023-06-22T10:28:57;26.78;46.25
47757;SHT35;22147;52.388;13.390;2023-06-22T10:31:43;26.48;47.22
47757;SHT35;22147;52.388;13.390;2023-06-22T10:34:12;26.41;47.12
47757;SHT35;22147;52.388;13.390;2023-06-22T10:36:40;26.56;46.22
47757;SHT35;22147;52.388;13.390;2023-06-22T10:39:09;26.36;46.62
47757;SHT35;22147;52.388;13.390;2023-06-22T10:41:37;26.56;47.91
47757;SHT35;22147;52.388;13.390;2023-06-22T10:44:06;26.97;46.50
47757;SHT35;22147;52.388;13.390;2023-06-22T10:46:35;27.54;46.94
47757;SHT35;22147;52.388;13.390;2023-06-22T10:49:05;28.00;45.05
47757;SHT35;22147;52.388;13.390;2023-06-22T10:51:34;28.33;45.13
47757;SHT35;22147;52.388;13.390;2023-06-22T10:54:02;28.65;44.58
47757;SHT35;22147;52.388;13.390;2023-06-22T10:56:34;28.22;44.17
47757;SHT35;22147;52.388;13.390;2023-06-22T10:59:02;28.10;45.53
47757;SHT35;22147;52.388;13.390;2023-06-22T11:01:31;28.29;44.30
47757;SHT35;22147;52.388;13.390;2023-06-22T11:04:05;28.37;44.02
47757;SHT35;22147;52.388;13.390;2023-06-22T11:06:36;28.59;44.94
47757;SHT35;22147;52.388;13.390;2023-06-22T11:09:06;28.85;45.05
47757;SHT35;22147;52.388;13.390;2023-06-22T11:11:40;28.70;44.89
47757;SHT35;22147;52.388;13.390;2023-06-22T11:14:09;28.78;44.79
47757;SHT35;22147;52.388;13.390;2023-06-22T11:16:37;28.67;45.68
47757;SHT35;22147;52.388;13.390;2023-06-22T11:19:06;28.80;45.45
47757;SHT35;22147;52.388;13.390;2023-06-22T11:21:34;28.71;44.67
47757;SHT35;22147;52.388;13.390;2023-06-22T11:24:03;28.68;44.71
47757;SHT35;22147;52.388;13.390;2023-06-22T11:26:32;28.57;45.25
47757;SHT35;22147;52.388;13.390;2023-06-22T11:29:00;28.61;45.60
47757;SHT35;22147;52.388;13.390;2023-06-22T11:31:28;28.37;44.63
47757;SHT35;22147;52.388;13.390;2023-06-22T11:33:56;28.36;45.84
47757;SHT35;22147;52.388;13.390;2023-06-22T11:36:26;28.32;45.46
47757;SHT35;22147;52.388;13.390;2023-06-22T11:38:53;28.29;44.34
47757;SHT35;22147;52.388;13.390;2023-06-22T11:41:22;28.22;45.38
47757;SHT35;22147;52.388;13.390;2023-06-22T11:43:50;28.51;44.56
47757;SHT35;22147;52.388;13.390;2023-06-22T11:46:19;28.53;44.50
47757;SHT35;22147;52.388;13.390;2023-06-22T11:48:47;28.60;44.99
47757;SHT35;22147;52.388;13.390;2023-06-22T11:51:16;28.23;43.84
47757;SHT35;22147;52.388;13.390;2023-06-22T11:53:44;28.43;44.38
47757;SHT35;22147;52.388;13.390;2023-06-22T11:56:13;28.67;45.97
47757;SHT35;22147;52.388;13.390;2023-06-22T11:58:41;28.71;43.10
47757;SHT35;22147;52.388;13.390;2023-06-22T12:01:09;28.98;42.97
47757;SHT35;22147;52.388;13.390;2023-06-22T12:03:38;29.18;42.26
47757;SHT35;22147;52.388;13.390;2023-06-22T12:06:06;28.50;42.20
47757;SHT35;22147;52.388;13.390;2023-06-22T12:08:35;28.41;43.80
47757;SHT35;22147;52.388;13.390;2023-06-22T12:11:06;28.61;44.62
47757;SHT35;22147;52.388;13.390;2023-06-22T12:13:37;28.36;43.45
47757;SHT35;22147;52.388;13.390;2023-06-22T12:16:07;28.17;44.05
47757;SHT35;22147;52.388;13.390;2023-06-22T12:18:37;27.92;44.42
47757;SHT35;22147;52.388;13.390;2023-06-22T12:21:07;27.97;44.27
47757;SHT35;22147;52.388;13.390;2023-06-22T12:23:38;28.13;43.61
47757;SHT35;22147;52.388;13.390;2023-06-22T12:26:08;28.15;44.15
47757;SHT35;22147;52.388;13.390;2023-06-22T12:28:38;28.43;43.31
47757;SHT35;22147;52.388;13.390;2023-06-22T12:31:09;28.80;43.17
47757;SHT35;22147;52.388;13.390;2023-06-22T12:33:37;28.85;42.28
47757;SHT35;22147;52.388;13.390;2023-06-22T12:36:06;28.71;43.55
47757;SHT35;22147;52.388;13.390;2023-06-22T12:38:35;28.43;43.21
47757;SHT35;22147;52.388;13.390;2023-06-22T12:41:02;28.54;42.35
47757;SHT35;22147;52.388;13.390;2023-06-22T12:43:31;28.65;43.80
47757;SHT35;22147;52.388;13.390;2023-06-22T12:46:01;28.99;43.40
47757;SHT35;22147;52.388;13.390;2023-06-22T12:48:29;29.36;43.60
47757;SHT35;22147;52.388;13.390;2023-06-22T12:50:57;29.59;41.56
47757;SHT35;22147;52.388;13.390;2023-06-22T12:53:26;29.76;42.52
47757;SHT35;22147;52.388;13.390;2023-06-22T12:55:54;29.84;42.73
47757;SHT35;22147;52.388;13.390;2023-06-22T12:58:23;29.87;40.39
47757;SHT35;22147;52.388;13.390;2023-06-22T13:00:51;29.69;41.11
47757;SHT35;22147;52.388;13.390;2023-06-22T13:03:20;29.26;41.11
47757;SHT35;22147;52.388;13.390;2023-06-22T13:05:48;29.25;43.95
47757;SHT35;22147;52.388;13.390;2023-06-22T13:08:16;29.01;42.21
47757;SHT35;22147;52.388;13.390;2023-06-22T13:10:45;29.25;42.56
47757;SHT35;22147;52.388;13.390;2023-06-22T13:13:13;29.49;41.73
47757;SHT35;22147;52.388;13.390;2023-06-22T13:15:42;29.62;41.54
47757;SHT35;22147;52.388;13.390;2023-06-22T13:18:10;29.15;42.51
47757;SHT35;22147;52.388;13.390;2023-06-22T13:20:38;29.01;41.85
47757;SHT35;22147;52.388;13.390;2023-06-22T13:23:07;29.07;42.16
47757;SHT35;22147;52.388;13.390;2023-06-22T13:25:35;29.59;42.68
47757;SHT35;22147;52.388;13.390;2023-06-22T13:28:04;29.84;40.89
47757;SHT35;22147;52.388;13.390;2023-06-22T13:30:40;29.74;41.70
47757;SHT35;22147;52.388;13.390;2023-06-22T13:33:10;29.30;41.12
47757;SHT35;22147;52.388;13.390;2023-06-22T13:35:41;29.21;44.23
47757;SHT35;22147;52.388;13.390;2023-06-22T13:38:14;29.60;41.80
47757;SHT35;22147;52.388;13.390;2023-06-22T13:40:45;29.80;40.83
47757;SHT35;22147;52.388;13.390;2023-06-22T13:43:16;30.02;41.41
47757;SHT35;22147;52.388;13.390;2023-06-22T13:45:46;29.69;40.50
47757;SHT35;22147;52.388;13.390;2023-06-22T13:48:17;29.74;41.00
47757;SHT35;22147;52.388;13.390;2023-06-22T13:50:47;29.62;42.31
47757;SHT35;22147;52.388;13.390;2023-06-22T13:53:17;29.81;41.09
47757;SHT35;22147;52.388;13.390;2023-06-22T13:55:47;29.96;40.77
47757;SHT35;22147;52.388;13.390;2023-06-22T13:58:18;30.38;40.85
47757;SHT35;22147;52.388;13.390;2023-06-22T14:00:49;30.41;40.69
47757;SHT35;22147;52.388;13.390;2023-06-22T14:03:20;30.32;40.69
47757;SHT35;22147;52.388;13.390;2023-06-22T14:05:51;29.96;40.82
47757;SHT35;22147;52.388;13.390;2023-06-22T14:08:24;29.80;42.40
47757;SHT35;22147;52.388;13.390;2023-06-22T14:11:10;30.25;41.55
47757;SHT35;22147;52.388;13.390;2023-06-22T14:13:41;30.32;40.43
47757;SHT35;22147;52.388;13.390;2023-06-22T14:16:13;30.21;40.78
47757;SHT35;22147;52.388;13.390;2023-06-22T14:18:45;30.02;40.29
47757;SHT35;22147;52.388;13.390;2023-06-22T14:21:15;30.11;40.74
47757;SHT35;22147;52.388;13.390;2023-06-22T14:23:44;30.36;40.11
47757;SHT35;22147;52.388;13.390;2023-06-22T14:26:19;30.56;40.68
47757;SHT35;22147;52.388;13.390;2023-06-22T14:28:49;30.68;39.35
47757;SHT35;22147;52.388;13.390;2023-06-22T14:31:22;30.64;40.88
47757;SHT35;22147;52.388;13.390;2023-06-22T14:33:52;30.18;40.20
47757;SHT35;22147;52.388;13.390;2023-06-22T14:36:22;30.36;39.75
47757;SHT35;22147;52.388;13.390;2023-06-22T14:38:52;30.62;40.52
47757;SHT35;22147;52.388;13.390;2023-06-22T14:41:22;30.51;41.08
47757;SHT35;22147;52.388;13.390;2023-06-22T14:43:52;30.89;40.44
47757;SHT35;22147;52.388;13.390;2023-06-22T14:46:22;31.23;39.72
47757;SHT35;22147;52.388;13.390;2023-06-22T14:48:53;31.37;39.54
47757;SHT35;22147;52.388;13.390;2023-06-22T14:51:23;31.20;39.55
47757;SHT35;22147;52.388;13.390;2023-06-22T14:53:53;31.26;39.51
47757;SHT35;22147;52.388;13.390;2023-06-22T14:56:22;31.71;39.35
47757;SHT35;22147;52.388;13.390;2023-06-22T14:58:53;31.29;38.86
47757;SHT35;22147;52.388;13.390;2023-06-22T15:01:23;31.61;39.44
47757;SHT35;22147;52.388;13.390;2023-06-22T15:03:53;31.72;39.63
47757;SHT35;22147;52.388;13.390;2023-06-22T15:06:23;31.23;39.20
47757;SHT35;22147;52.388;13.390;2023-06-22T15:08:53;31.19;39.10
47757;SHT35;22147;52.388;13.390;2023-06-22T15:11:23;31.19;40.11
47757;SHT35;22147;52.388;13.390;2023-06-22T15:13:53;31.20;39.65
47757;SHT35;22147;52.388;13.390;2023-06-22T15:16:23;31.53;40.11
47757;SHT35;22147;52.388;13.390;2023-06-22T15:18:53;31.04;39.08
47757;SHT35;22147;52.388;13.390;2023-06-22T15:21:23;30.82;39.40
47757;SHT35;22147;52.388;13.390;2023-06-22T15:23:53;30.80;40.23
47757;SHT35;22147;52.388;13.390;2023-06-22T15:26:23;30.76;40.28
47757;SHT35;22147;52.388;13.390;2023-06-22T15:28:53;31.23;39.79
47757;SHT35;22147;52.388;13.390;2023-06-22T15:31:23;31.20;39.26
47757;SHT35;22147;52.388;13.390;2023-06-22T15:33:53;31.04;40.23
47757;SHT35;22147;52.388;13.390;2023-06-22T15:36:22;31.29;39.76
47757;SHT35;22147;52.388;13.390;2023-06-22T15:38:50;31.88;39.36
47757;SHT35;22147;52.388;13.390;2023-06-22T15:41:19;31.65;38.50
47757;SHT35;22147;52.388;13.390;2023-06-22T15:43:47;31.09;39.30